Time;durP1;ratioP1;P1;durP2;ratioP2;P2;SDS_P1;SDS_P2;PMS_P1;PMS_P2;Temp;Humidity;BMP_temperature;BMP_pressure;BME280_temperature;BME280_humidity;BME280_pressure;Samples;Min_cycle;Max_cycle;Signal;HPM_P1;HPM_P2
2023/01/13 00:00:37;;;;;;;46.20;10.17;;;10.70;99.90;;;10.84;83.82;100150.94;5094652;28;20055;-65
2023/01/13 00:03:05;;;;;;;43.33;10.18;;;10.60;99.90;;;10.78;84.62;100143.13;5094564;28;20162;-65
2023/01/13 00:05:34;;;;;;;58.97;11.30;;;10.60;99.90;;;10.79;85.25;100152.81;5094492;28;20044;-65
2023/01/13 00:08:03;;;;;;;54.20;10.57;;;10.60;99.90;;;10.72;85.94;100148.53;5094692;28;20044;-68
2023/01/13 00:10:32;;;;;;;55.75;12.35;;;10.50;99.90;;;10.76;86.02;100158.16;5094397;28;20036;-67
2023/01/13 00:13:02;;;;;;;49.38;9.88;;;10.50;99.90;;;10.77;86.09;100139.59;5094113;28;20071;-65
2023/01/13 00:15:32;;;;;;;55.47;11.07;;;10.50;99.90;;;10.79;86.23;100124.59;5094045;28;20043;-67
2023/01/13 00:18:00;;;;;;;56.13;11.02;;;10.50;99.90;;;10.77;86.03;100131.66;5093920;28;20036;-66
2023/01/13 00:20:29;;;;;;;62.42;10.77;;;10.60;99.90;;;10.75;86.55;100122.00;5093814;28;20052;-67
2023/01/13 00:22:58;;;;;;;50.67;10.20;;;10.60;99.90;;;10.82;87.10;100116.59;5094018;28;20488;-64
2023/01/13 00:25:27;;;;;;;59.53;11.38;;;10.60;99.90;;;10.85;87.46;100129.78;5093860;28;20478;-65
2023/01/13 00:27:55;;;;;;;46.95;11.80;;;10.60;99.90;;;10.73;87.97;100098.25;5093349;28;20051;-64
2023/01/13 00:30:24;;;;;;;59.67;12.10;;;10.70;99.90;;;10.86;88.51;100101.53;5093971;28;20075;-64
2023/01/13 00:32:53;;;;;;;67.25;12.77;;;10.70;99.90;;;10.90;88.74;100106.75;5075702;28;20040;-64
2023/01/13 00:35:22;;;;;;;55.70;10.75;;;10.70;99.90;;;10.79;89.16;100118.41;5093801;28;20123;-64
2023/01/13 00:37:50;;;;;;;56.67;12.40;;;10.60;99.90;;;10.81;89.52;100101.63;5093571;28;20485;-64
2023/01/13 00:40:18;;;;;;;65.40;12.85;;;10.60;99.90;;;10.80;90.18;100133.41;5093606;28;20405;-64
2023/01/13 00:45:32;;;;;;;58.13;11.85;;;10.60;99.90;;;10.87;90.76;100113.88;5093491;28;20050;-65
2023/01/13 00:48:02;;;;;;;60.00;12.30;;;10.60;99.90;;;10.82;90.05;100102.47;5093552;28;20036;-64
2023/01/13 00:50:30;;;;;;;64.82;12.65;;;10.60;99.90;;;10.82;90.15;100089.25;5093598;28;20043;-65
2023/01/13 00:53:00;;;;;;;54.20;11.57;;;10.60;99.90;;;10.21;90.07;99982.84;5075319;28;20036;-64
2023/01/13 00:55:31;;;;;;;63.70;11.50;;;10.60;99.90;;;10.68;89.79;100086.84;5093252;28;20505;-64
2023/01/13 00:58:02;;;;;;;64.28;12.95;;;10.50;99.90;;;10.73;89.72;100108.81;5093878;28;20036;-64
2023/01/13 01:00:30;;;;;;;;;;;10.50;99.90;;;10.56;89.57;100071.22;5075659;28;20051;-64
2023/01/13 01:02:59;;;;;;;63.72;12.50;;;10.50;99.90;;;10.70;89.18;100081.56;5093347;28;19920;-64
2023/01/13 01:05:29;;;;;;;69.18;11.18;;;10.50;99.90;;;10.69;88.71;100109.78;5093170;28;20044;-65
2023/01/13 01:07:57;;;;;;;53.17;11.40;;;10.50;99.90;;;10.68;87.94;100112.44;5093015;28;20083;-64
2023/01/13 01:10:25;;;;;;;61.92;10.98;;;10.50;99.90;;;10.70;87.98;100108.84;5093202;28;20036;-64
2023/01/13 01:12:54;;;;;;;60.25;12.50;;;10.50;99.90;;;10.67;87.50;100105.41;5092862;28;20494;-65
2023/01/13 01:15:22;;;;;;;56.65;12.95;;;10.50;99.90;;;10.64;87.46;100105.47;5092657;28;20028;-64
2023/01/13 01:17:50;;;;;;;67.22;12.63;;;10.50;99.90;;;10.65;87.30;100094.84;5092798;28;20093;-64
2023/01/13 01:20:19;;;;;;;55.53;11.95;;;10.50;99.90;;;10.57;86.99;100087.94;5092717;28;20035;-64
2023/01/13 01:22:49;;;;;;;52.17;10.88;;;10.40;99.90;;;10.49;87.27;100098.63;5092747;28;20500;-64
2023/01/13 01:25:17;;;;;;;55.93;11.93;;;10.30;99.90;;;10.53;87.34;100092.41;5092948;28;20481;-64
2023/01/13 01:27:45;;;;;;;57.30;11.80;;;10.30;99.90;;;10.50;86.97;100094.22;5092675;28;20062;-64
2023/01/13 01:30:15;;;;;;;54.35;11.05;;;10.30;99.90;;;10.49;86.93;100084.56;5092905;28;20405;-65
2023/01/13 01:32:43;;;;;;;63.57;12.53;;;10.30;99.90;;;10.50;86.47;100095.13;5092964;28;20530;-64
2023/01/13 01:35:12;;;;;;;62.22;11.73;;;10.30;99.90;;;10.56;86.53;100081.78;5074812;28;20446;-64
2023/01/13 01:37:40;;;;;;;60.20;12.43;;;10.30;99.90;;;10.46;86.31;100084.59;5074859;28;20116;-64
2023/01/13 01:40:12;;;;;;;58.97;12.52;;;10.30;99.90;;;10.50;86.79;100099.53;5092564;28;20075;-66
2023/01/13 01:45:30;;;;;;;67.38;13.77;;;10.30;99.90;;;10.47;86.85;100097.78;5074802;28;20051;-64
2023/01/13 01:48:03;;;;;;;75.72;13.68;;;10.30;99.90;;;10.45;86.86;100088.16;5092682;28;20210;-65
2023/01/13 01:50:33;;;;;;;61.03;12.82;;;10.30;99.90;;;10.48;87.18;100093.38;5093208;28;20044;-65
2023/01/13 01:53:11;;;;;;;66.43;13.15;;;10.20;99.90;;;10.50;87.36;100087.19;5092623;28;20486;-65
2023/01/13 01:55:41;;;;;;;64.85;11.65;;;10.30;99.90;;;10.44;87.65;100092.56;5092747;28;20127;-64
2023/01/13 01:58:15;;;;;;;60.85;11.90;;;10.30;99.90;;;10.44;87.74;100094.31;5092928;28;20067;-64
2023/01/13 02:00:44;;;;;;;69.10;13.68;;;10.30;99.90;;;10.55;87.98;100100.34;5092617;28;20485;-64
2023/01/13 02:03:13;;;;;;;74.55;13.77;;;10.30;99.90;;;10.57;88.25;100103.78;5092489;28;20032;-63
2023/01/13 02:05:41;;;;;;;68.18;12.25;;;10.30;99.90;;;10.53;88.61;100091.56;5092458;28;20482;-64
2023/01/13 02:08:13;;;;;;;62.28;12.32;;;10.30;99.90;;;10.64;88.64;100094.88;5092700;28;20036;-64
2023/01/13 02:10:46;;;;;;;72.43;13.38;;;10.40;99.90;;;10.56;88.44;100084.44;5092746;28;20561;-64
2023/01/13 02:13:14;;;;;;;67.22;12.73;;;10.40;99.90;;;10.52;88.60;100074.81;5092711;28;20044;-64
2023/01/13 02:15:51;;;;;;;61.85;13.35;;;10.30;99.90;;;10.58;88.86;100081.75;5092694;28;20401;-64
2023/01/13 02:18:40;;;;;;;67.97;13.05;;;10.40;99.90;;;10.50;88.70;100081.91;5074469;28;20083;-64
2023/01/13 02:21:40;;;;;;;72.05;14.80;;;10.30;99.90;;;10.55;88.62;100073.91;5092110;28;20044;-64
2023/01/13 02:24:54;;;;;;;61.17;12.30;;;10.30;99.90;;;10.48;88.39;100083.69;5092160;28;20044;-65
2023/01/13 02:27:44;;;;;;;64.28;12.63;;;10.30;99.90;;;10.41;88.25;100091.75;5092403;28;20044;-64
2023/01/13 02:33:30;;;;;;;59.42;12.77;;;10.30;99.90;;;10.48;87.69;100093.38;5092651;28;20085;-65
2023/01/13 02:36:06;;;;;;;64.65;12.68;;;10.20;99.90;;;10.49;87.32;100079.28;5092075;28;20058;-65
2023/01/13 02:38:39;;;;;;;68.68;12.05;;;10.30;99.90;;;10.50;86.77;100086.31;5092062;28;20040;-64
2023/01/13 02:44:06;;;;;;;57.90;10.95;;;10.30;99.90;;;10.40;85.46;100074.13;5091965;28;20044;-64
2023/01/13 02:46:45;;;;;;;52.72;10.73;;;10.20;99.90;;;10.41;85.58;100081.19;5091976;28;20047;-64
2023/01/13 02:49:23;;;;;;;47.95;9.98;;;10.20;99.90;;;10.39;85.46;100091.78;5092239;28;20058;-64
2023/01/13 02:51:56;;;;;;;46.90;11.10;;;10.20;99.90;;;10.38;85.27;100075.91;5094236;28;20101;-64
2023/01/13 02:54:28;;;;;;;55.03;11.75;;;10.20;99.90;;;10.34;85.54;100071.59;5095555;28;20040;-64
2023/01/13 02:56:59;;;;;;;50.42;10.45;;;10.20;99.90;;;10.36;85.29;100078.59;5096146;28;20051;-64
2023/01/13 02:59:30;;;;;;;55.92;10.73;;;10.10;99.90;;;10.25;85.33;100074.38;5096018;28;20079;-64
2023/01/13 03:02:02;;;;;;;50.60;10.23;;;10.10;99.90;;;10.19;85.49;100088.56;5095388;28;20044;-65
2023/01/13 03:04:49;;;;;;;52.35;10.35;;;10.00;99.90;;;10.21;85.47;100091.19;5095375;28;20127;-65
2023/01/13 03:08:01;;;;;;;56.67;11.65;;;10.00;99.90;;;10.28;85.72;100091.06;5095586;28;20399;-64
2023/01/13 03:10:47;;;;;;;51.97;10.65;;;10.00;99.90;;;10.23;85.83;100082.34;5076985;28;20131;-65
2023/01/13 03:13:30;;;;;;;52.13;11.25;;;10.00;99.90;;;10.28;86.00;100083.13;5095240;28;20041;-64
2023/01/13 03:16:15;;;;;;;44.10;9.82;;;10.10;99.90;;;10.28;85.93;100063.78;5095132;28;20067;-64
2023/01/13 03:18:52;;;;;;;37.80;8.85;;;10.10;99.90;;;10.22;86.28;100074.44;5095142;28;20040;-64
2023/01/13 03:21:27;;;;;;;51.80;10.07;;;10.00;99.90;;;10.19;86.38;100072.72;5094972;28;20068;-64
2023/01/13 03:24:03;;;;;;;33.00;8.50;;;10.10;99.90;;;10.16;86.71;100066.63;5094786;28;20058;-64
2023/01/13 03:26:41;;;;;;;39.75;8.68;;;10.00;99.90;;;10.17;86.52;100070.97;5094828;28;20551;-64
2023/01/13 03:29:18;;;;;;;41.10;9.15;;;10.00;99.90;;;10.16;87.01;100056.03;5094939;28;20067;-64
2023/01/13 03:32:02;;;;;;;35.95;7.63;;;10.00;99.90;;;10.18;87.08;100064.81;5095594;28;20087;-64
2023/01/13 03:34:36;;;;;;;29.02;7.95;;;9.90;99.90;;;10.12;86.80;100060.50;5095663;28;20093;-64
2023/01/13 03:37:07;;;;;;;32.88;9.27;;;10.00;99.90;;;10.10;86.73;100067.59;5095499;28;20040;-64
2023/01/13 03:39:40;;;;;;;33.33;8.40;;;9.90;99.90;;;10.18;86.84;100059.53;5095377;28;20089;-64
2023/01/13 03:42:13;;;;;;;41.67;7.75;;;10.00;99.90;;;10.03;86.79;100064.13;5095301;28;20040;-64
2023/01/13 03:44:46;;;;;;;29.27;7.93;;;9.90;99.90;;;10.10;86.94;100074.63;5077365;28;20083;-65
2023/01/13 03:47:22;;;;;;;39.45;7.43;;;9.90;99.90;;;10.13;87.03;100072.81;5095169;28;20040;-70
2023/01/13 03:49:59;;;;;;;37.95;8.13;;;9.90;99.90;;;9.99;86.85;100059.78;5094407;28;20493;-70
2023/01/13 03:52:33;;;;;;;31.25;8.18;;;9.90;99.90;;;9.71;87.26;100020.59;5094521;28;20044;-70
2023/01/13 03:55:10;;;;;;;27.17;7.65;;;9.80;99.90;;;9.94;87.60;100073.94;5076503;28;20051;-70
2023/01/13 03:57:45;;;;;;;33.65;8.25;;;9.80;99.90;;;9.91;87.44;100045.81;5094343;28;20507;-70
2023/01/13 04:00:16;;;;;;;33.50;7.43;;;9.80;99.90;;;9.80;88.28;100054.78;5094207;28;20397;-70
2023/01/13 04:02:51;;;;;;;31.27;8.23;;;9.70;99.90;;;9.99;88.10;100067.69;5075372;28;20483;-70
2023/01/13 04:05:22;;;;;;;34.05;7.10;;;9.80;99.90;;;9.97;88.06;100056.28;5094570;28;20062;-70
2023/01/13 04:07:55;;;;;;;;;;;9.80;99.90;;;9.94;87.65;100072.19;5076715;28;20101;-70
2023/01/13 04:10:28;;;;;;;31.75;7.63;;;9.80;99.90;;;9.96;88.03;100075.69;5094206;28;19920;-70
2023/01/13 04:13:01;;;;;;;30.33;8.27;;;9.70;99.90;;;9.98;88.08;100071.25;5094183;28;20093;-70
2023/01/13 04:15:34;;;;;;;31.25;7.68;;;9.80;99.90;;;10.01;88.55;100084.41;5094328;28;20048;-70
2023/01/13 04:18:22;;;;;;;30.35;7.28;;;9.80;99.90;;;10.08;88.46;100086.97;5076302;28;20044;-69
2023/01/13 04:20:54;;;;;;;32.40;7.90;;;9.80;99.90;;;10.10;88.37;100090.47;5093026;28;20079;-70
2023/01/13 04:23:23;;;;;;;34.45;7.68;;;9.90;99.90;;;10.18;88.19;100089.44;5094028;28;20550;-70
2023/01/13 04:25:52;;;;;;;37.13;7.82;;;9.90;99.90;;;10.11;88.03;100071.97;5075849;28;20079;-70
2023/01/13 04:28:21;;;;;;;30.52;7.03;;;10.00;99.90;;;10.19;87.61;100085.03;5094192;28;20044;-70
2023/01/13 04:30:49;;;;;;;33.72;7.43;;;10.00;99.90;;;10.21;87.23;100099.09;5076277;28;20055;-70
2023/01/13 04:33:19;;;;;;;31.23;7.72;;;10.00;99.90;;;10.16;85.88;100072.78;5094168;28;20098;-70
2023/01/13 04:35:48;;;;;;;31.88;7.30;;;10.00;99.90;;;10.17;84.35;100097.41;5094064;28;20040;-70
2023/01/13 04:38:20;;;;;;;35.70;7.15;;;10.00;99.90;;;10.18;83.43;100096.53;5093987;28;20097;-70
2023/01/13 04:40:49;;;;;;;32.83;6.30;;;10.00;99.90;;;10.26;82.77;100102.56;5094203;28;20040;-70
2023/01/13 04:43:17;;;;;;;27.40;6.90;;;10.10;99.90;;;10.27;82.35;100114.88;5093961;28;20504;-70
2023/01/13 04:45:46;;;;;;;30.00;7.70;;;10.10;99.90;;;10.17;82.33;100089.47;5093688;28;20442;-70
2023/01/13 04:48:14;;;;;;;32.03;7.63;;;10.10;99.90;;;10.30;82.18;100094.56;5093534;28;20040;-69
2023/01/13 04:50:43;;;;;;;31.88;7.40;;;10.10;99.90;;;10.31;81.89;100104.25;5093676;28;20185;-70
2023/01/13 04:53:11;;;;;;;30.67;8.38;;;10.20;99.90;;;10.31;81.00;100100.72;5093442;28;20461;-69
2023/01/13 04:55:41;;;;;;;35.03;7.25;;;10.10;99.90;;;10.31;79.67;100095.44;5093469;28;20097;-68
2023/01/13 04:58:11;;;;;;;36.17;7.70;;;10.10;99.90;;;10.40;79.54;100100.56;5076273;28;20035;-69
2023/01/13 05:00:39;;;;;;;30.08;6.45;;;10.20;99.90;;;10.42;78.76;100099.66;5093918;28;20044;-69
2023/01/13 05:03:08;;;;;;;33.47;7.68;;;10.20;99.90;;;10.43;78.81;100100.53;5075271;28;20070;-70
2023/01/13 05:05:36;;;;;;;27.98;7.47;;;10.20;99.90;;;10.42;78.35;100104.94;5093130;28;20058;-70
2023/01/13 05:08:05;;;;;;;44.03;8.40;;;10.20;99.90;;;10.46;77.51;100089.88;5093625;28;20050;-70
2023/01/13 05:10:34;;;;;;;34.25;7.65;;;10.30;99.90;;;10.31;77.21;100091.03;5093375;28;20070;-70
2023/01/13 05:18:38;;;;;;;39.00;8.55;;;10.10;99.90;;;10.20;77.46;100092.09;5093064;28;20043;-70
2023/01/13 05:25:20;;;;;;;30.58;7.95;;;10.00;99.90;;;9.67;77.94;99993.38;5093345;28;20040;-70
2023/01/13 05:26:41;;;;;;;48.75;8.88;;;10.00;99.90;;;10.06;78.32;100065.84;5093008;28;20044;-70
2023/01/13 05:29:11;;;;;;;38.45;7.63;;;10.00;99.90;;;10.19;78.33;100101.78;5093177;28;20052;-70
2023/01/13 05:31:40;;;;;;;29.53;7.77;;;10.10;99.90;;;9.45;78.35;99968.16;5093436;28;20566;-70
2023/01/13 05:34:08;;;;;;;33.60;8.27;;;10.00;99.90;;;10.20;78.30;100098.22;5092840;28;20828;-70
2023/01/13 05:36:36;;;;;;;35.65;7.68;;;10.00;99.90;;;10.13;78.51;100095.69;5092723;28;20489;-70
2023/01/13 05:39:05;;;;;;;44.60;9.32;;;10.00;99.90;;;10.14;78.51;100095.72;5092590;28;20075;-70
2023/01/13 05:44:21;;;;;;;36.55;8.25;;;10.00;99.90;;;10.13;78.93;100106.28;5092540;28;20048;-69
2023/01/13 05:46:49;;;;;;;31.07;7.67;;;9.90;99.90;;;10.23;79.00;100111.41;5093179;28;20084;-70
2023/01/13 05:49:18;;;;;;;33.20;8.38;;;10.00;99.90;;;10.26;79.28;100113.16;5092432;28;20292;-70
2023/01/13 05:51:46;;;;;;;33.95;8.05;;;10.00;99.90;;;10.26;79.48;100111.34;5074536;28;20079;-70
2023/01/13 05:54:15;;;;;;;36.05;8.82;;;10.10;99.90;;;10.23;79.71;100123.75;5092731;28;20051;-70
2023/01/13 05:56:43;;;;;;;37.47;8.35;;;10.00;99.90;;;9.94;79.39;100076.59;5092442;28;20442;-70
2023/01/13 05:59:11;;;;;;;42.75;8.70;;;10.10;99.90;;;10.26;79.64;100123.72;5092350;28;20071;-70
2023/01/13 06:01:41;;;;;;;36.13;9.00;;;10.10;99.90;;;10.25;79.56;100116.66;5092947;28;20114;-70
2023/01/13 06:04:10;;;;;;;34.90;7.60;;;10.10;99.90;;;10.30;79.55;100105.13;5092889;28;20076;-70
2023/01/13 06:06:38;;;;;;;44.45;9.43;;;10.10;99.90;;;10.27;79.46;100096.38;5074697;28;20048;-70
2023/01/13 06:09:06;;;;;;;50.00;8.98;;;10.10;99.90;;;10.28;79.73;100100.78;5092257;28;20119;-70
2023/01/13 06:11:35;;;;;;;38.72;8.07;;;10.10;99.90;;;10.30;79.85;100091.06;5092478;28;20048;-70
2023/01/13 06:14:03;;;;;;;41.53;8.13;;;10.10;99.90;;;10.32;79.91;100097.16;5092173;28;20044;-70
2023/01/13 06:16:32;;;;;;;35.25;8.63;;;10.10;99.90;;;10.00;79.62;100061.53;5092098;28;20051;-72
2023/01/13 06:19:02;;;;;;;39.92;8.70;;;10.10;99.90;;;10.27;80.25;100107.84;5092052;28;20036;-70
2023/01/13 06:21:31;;;;;;;37.20;8.57;;;10.10;99.90;;;10.23;80.31;100111.41;5092340;28;20101;-70
2023/01/13 06:24:00;;;;;;;49.75;10.02;;;10.10;99.90;;;10.24;80.62;100102.56;5092130;28;20075;-70
2023/01/13 06:26:32;;;;;;;41.33;9.25;;;10.10;99.90;;;9.75;80.40;100024.94;5094205;28;20036;-70
2023/01/13 06:29:00;;;;;;;40.20;8.23;;;10.10;99.90;;;10.28;80.47;100116.63;5096394;28;20172;-70
2023/01/13 06:31:28;;;;;;;33.88;7.78;;;10.10;99.90;;;10.07;79.91;100077.25;5096309;28;20047;-70
2023/01/13 06:34:04;;;;;;;51.08;9.57;;;10.00;99.90;;;9.98;79.94;100071.25;5095908;28;20048;-70
2023/01/13 06:36:38;;;;;;;34.75;8.50;;;10.00;99.90;;;10.23;79.85;100118.47;5095937;28;20127;-70
2023/01/13 06:39:08;;;;;;;36.38;8.07;;;10.10;99.90;;;10.17;79.42;100102.69;5077882;28;20082;-70
2023/01/13 06:44:24;;;;;;;41.30;8.18;;;10.00;99.90;;;10.17;78.18;100140.56;5095847;28;20101;-70
2023/01/13 06:46:52;;;;;;;39.80;8.20;;;10.00;99.90;;;10.01;78.00;100096.72;5096029;28;20093;-70
2023/01/13 06:49:22;;;;;;;36.67;7.90;;;10.00;99.90;;;10.17;78.04;100115.91;5078103;28;20533;-70
2023/01/13 06:51:51;;;;;;;26.60;7.43;;;10.00;99.90;;;10.20;77.98;100115.88;5095826;28;20048;-70
2023/01/13 06:54:19;;;;;;;36.92;8.25;;;10.00;99.90;;;10.14;78.38;100131.81;5095958;28;20036;-70
2023/01/13 06:56:48;;;;;;;38.20;7.40;;;10.00;99.90;;;10.12;78.49;100134.50;5077674;28;20105;-71
2023/01/13 06:59:16;;;;;;;39.80;8.93;;;9.90;99.90;;;10.10;78.83;100132.75;5095541;28;20427;-71
2023/01/13 07:01:45;;;;;;;41.35;9.52;;;10.00;99.90;;;10.18;79.03;100139.66;5077270;28;20044;-71
2023/01/13 07:04:13;;;;;;;40.28;9.23;;;10.00;99.90;;;10.22;79.44;100145.81;5095437;28;20028;-71
2023/01/13 07:06:43;;;;;;;43.97;9.25;;;10.00;99.90;;;10.16;78.71;100137.97;5077536;28;20084;-72
2023/01/13 07:09:12;;;;;;;33.43;8.70;;;10.00;99.90;;;10.18;78.79;100133.53;5095473;28;20081;-71
2023/01/13 07:11:40;;;;;;;40.40;8.75;;;10.00;99.90;;;10.17;78.21;100129.13;5096073;28;20043;-71
2023/01/13 07:16:54;;;;;;;44.53;9.13;;;10.00;99.90;;;10.03;78.80;100122.25;5095383;28;20075;-71
2023/01/13 07:19:23;;;;;;;31.65;7.75;;;10.00;99.90;;;10.17;78.61;100151.13;5095314;28;20040;-71
2023/01/13 07:21:53;;;;;;;39.03;8.85;;;10.00;99.90;;;10.17;78.67;100147.63;5094971;28;20044;-71
2023/01/13 07:24:22;;;;;;;37.03;8.65;;;10.00;99.90;;;10.21;78.51;100133.47;5095366;28;20441;-71
2023/01/13 07:26:51;;;;;;;42.03;8.98;;;10.00;99.90;;;10.18;78.60;100147.59;5077177;28;20170;-71
2023/01/13 07:29:20;;;;;;;36.95;9.55;;;10.00;99.90;;;10.25;78.53;100137.81;5095107;28;20093;-71
2023/01/13 07:31:48;;;;;;;37.03;8.23;;;10.10;99.90;;;10.20;78.53;100143.16;5094957;28;20397;-71
2023/01/13 07:34:17;;;;;;;36.80;7.32;;;10.00;99.90;;;10.20;78.91;100140.50;5094834;28;20044;-71
2023/01/13 07:36:46;;;;;;;48.05;8.75;;;10.00;99.90;;;10.22;78.87;100162.50;5094591;28;20555;-71
2023/01/13 07:39:16;;;;;;;40.25;7.88;;;10.10;99.90;;;10.29;78.89;100153.63;5094888;28;20048;-71
2023/01/13 07:44:30;;;;;;;35.20;8.00;;;10.10;99.90;;;10.17;78.70;100137.03;5094583;28;20486;-71
2023/01/13 07:46:59;;;;;;;31.17;7.95;;;10.10;99.90;;;10.30;78.71;100151.84;5094650;28;20493;-69
2023/01/13 07:49:27;;;;;;;40.50;8.63;;;10.10;99.90;;;10.27;78.74;100147.47;5094495;28;20097;-70
2023/01/13 07:51:57;;;;;;;30.58;7.70;;;10.20;99.90;;;10.31;78.48;100157.09;5093438;28;20052;-69
2023/01/13 07:54:26;;;;;;;35.45;7.72;;;10.20;99.90;;;10.33;78.56;100165.88;5094356;28;20059;-69
2023/01/13 07:57:07;;;;;;;42.97;8.77;;;10.20;99.90;;;10.32;79.07;100177.34;5094440;28;20063;-71
2023/01/13 07:59:36;;;;;;;37.55;9.20;;;10.10;99.90;;;10.35;78.78;100163.22;5094133;28;20066;-71
2023/01/13 08:02:04;;;;;;;34.45;8.45;;;10.20;99.90;;;10.34;78.60;100180.84;5094198;28;20386;-71
2023/01/13 08:04:34;;;;;;;37.38;8.68;;;10.10;99.90;;;10.38;78.86;100179.00;5094549;28;20059;-69
2023/01/13 08:07:04;;;;;;;45.38;9.15;;;10.20;99.90;;;10.29;78.71;100180.03;5076286;28;20052;-71
2023/01/13 08:09:34;;;;;;;41.72;8.38;;;10.20;99.90;;;10.41;78.72;100197.50;5094492;28;20066;-72
2023/01/13 08:14:49;;;;;;;37.47;8.60;;;10.30;99.90;;;10.24;78.39;100162.50;5094174;28;20032;-70
2023/01/13 08:17:17;;;;;;;38.25;8.48;;;10.20;99.90;;;10.34;78.63;100196.69;5094015;28;20040;-70
2023/01/13 08:19:48;;;;;;;38.00;9.65;;;10.20;99.90;;;10.44;78.78;100202.72;5094403;28;20131;-70
2023/01/13 08:22:16;;;;;;;42.50;8.77;;;10.30;99.90;;;10.38;78.96;100202.81;5093968;28;20564;-72
2023/01/13 08:24:46;;;;;;;49.20;9.77;;;10.20;99.90;;;10.52;79.22;100225.53;5094116;28;20079;-72
2023/01/13 08:27:14;;;;;;;37.10;9.07;;;10.30;99.90;;;10.38;79.17;100218.66;5093918;28;20032;-70
2023/01/13 08:29:43;;;;;;;38.35;8.02;;;10.20;99.90;;;10.32;79.76;100211.69;5093875;28;20282;-72
2023/01/13 08:32:11;;;;;;;49.72;9.13;;;10.20;99.90;;;10.39;80.84;100216.03;5093863;28;20071;-72
2023/01/13 08:34:39;;;;;;;47.25;9.43;;;10.20;99.90;;;10.32;81.67;100208.16;5094092;28;20074;-69
2023/01/13 08:37:08;;;;;;;42.90;9.05;;;10.10;99.90;;;10.24;82.07;100218.00;5093780;28;20062;-70
2023/01/13 08:39:37;;;;;;;32.55;8.52;;;10.10;99.90;;;10.29;82.53;100222.31;5075775;28;20135;-68
2023/01/13 08:42:07;;;;;;;37.72;9.02;;;10.10;99.90;;;9.68;82.41;100113.03;5094347;28;20043;-70
2023/01/13 08:44:35;;;;;;;39.63;8.95;;;10.10;99.90;;;10.30;83.31;100233.78;5093984;28;20074;-69
2023/01/13 08:47:04;;;;;;;41.72;8.70;;;10.10;99.90;;;10.24;84.04;100220.66;5093896;28;20036;-69
2023/01/13 08:49:32;;;;;;;37.05;8.65;;;10.10;99.90;;;10.21;84.44;100242.69;5093325;28;20048;-68
2023/01/13 08:52:01;;;;;;;43.33;8.98;;;10.00;99.90;;;10.22;84.58;100236.50;5093942;28;20039;-66
2023/01/13 08:54:29;;;;;;;42.47;8.52;;;10.00;99.90;;;10.13;84.38;100222.53;5093760;28;20043;-67
2023/01/13 08:56:58;;;;;;;41.05;8.25;;;10.00;99.90;;;10.18;84.62;100229.50;5075435;28;20366;-68
2023/01/13 08:59:28;;;;;;;42.38;9.02;;;10.00;99.90;;;10.19;84.85;100240.97;5093368;28;20040;-66
2023/01/13 09:01:56;;;;;;;46.33;8.93;;;10.00;99.90;;;10.13;84.58;100243.69;5093424;28;20047;-68
2023/01/13 09:04:27;;;;;;;37.40;8.40;;;10.00;99.90;;;10.17;84.31;100251.56;5075289;28;20298;-68
2023/01/13 09:06:57;;;;;;;35.92;8.90;;;10.00;99.90;;;10.16;83.64;100241.00;5093332;28;20043;-67
2023/01/13 09:09:26;;;;;;;39.25;8.98;;;10.00;99.90;;;10.20;83.09;100248.00;5075325;28;20040;-67
2023/01/13 09:14:42;;;;;;;41.30;8.77;;;10.10;99.90;;;10.27;82.89;100241.72;5093514;28;20390;-69
2023/01/13 09:17:10;;;;;;;44.10;9.37;;;10.10;99.90;;;10.27;83.21;100258.47;5093478;28;20446;-66
2023/01/13 09:19:38;;;;;;;40.05;9.13;;;10.10;99.90;;;10.31;82.71;100262.84;5093164;28;20035;-68
2023/01/13 09:22:08;;;;;;;36.50;9.15;;;10.10;99.90;;;10.40;82.42;100264.47;5093042;28;20067;-68
2023/01/13 09:24:36;;;;;;;52.95;11.00;;;10.20;99.90;;;10.34;82.10;100269.81;5093003;28;20052;-67
2023/01/13 09:27:04;;;;;;;40.42;9.02;;;10.20;99.90;;;10.39;82.14;100268.00;5092857;28;20423;-67
2023/01/13 09:29:33;;;;;;;42.33;8.90;;;10.20;99.90;;;10.46;81.70;100275.84;5093766;28;20066;-69
2023/01/13 09:32:04;;;;;;;35.80;7.97;;;10.30;99.90;;;10.51;81.75;100275.78;5091865;28;20073;-67
2023/01/13 09:37:19;;;;;;;45.10;9.15;;;10.30;99.90;;;10.50;80.96;100293.41;5093078;28;20386;-68
2023/01/13 09:39:47;;;;;;;36.85;8.68;;;10.30;99.90;;;10.53;80.51;100292.50;5092843;28;20430;-67
2023/01/13 09:45:16;;;;;;;34.60;8.25;;;10.40;99.90;;;10.66;80.54;100305.53;5092495;28;20189;-69
2023/01/13 09:47:54;;;;;;;36.50;9.00;;;10.50;99.90;;;10.69;80.50;100300.19;5092655;28;20392;-69
2023/01/13 09:50:34;;;;;;;36.72;7.15;;;10.50;99.90;;;10.58;80.37;100309.16;5091511;28;20127;-68
2023/01/13 09:53:03;;;;;;;32.08;7.80;;;10.40;99.90;;;10.53;80.24;100319.78;5074679;28;20048;-67
2023/01/13 09:55:35;;;;;;;38.80;7.88;;;10.40;99.90;;;10.66;79.95;100305.53;5074588;28;20078;-68
2023/01/13 09:58:13;;;;;;;37.90;8.27;;;10.50;99.90;;;10.75;79.99;100323.03;5092481;28;20123;-69
2023/01/13 10:00:47;;;;;;;38.20;8.05;;;10.50;99.90;;;10.81;79.57;100336.19;5093729;28;20055;-69
2023/01/13 10:03:24;;;;;;;30.40;8.32;;;10.60;99.90;;;10.85;79.48;100324.66;5096812;28;20400;-70
2023/01/13 10:06:03;;;;;;;32.28;8.00;;;10.60;99.90;;;10.87;78.93;100351.97;5078748;28;20091;-68
2023/01/13 10:08:35;;;;;;;41.95;8.75;;;10.70;99.90;;;10.93;78.61;100351.88;5078657;28;20055;-70
2023/01/13 10:13:56;;;;;;;29.25;6.63;;;10.70;99.90;;;10.91;76.41;100380.13;5045440;28;20052;-69
2023/01/13 10:16:39;;;;;;;29.63;7.32;;;10.80;99.90;;;10.93;76.19;100351.88;5096703;28;20044;-68
2023/01/13 10:19:18;;;;;;;25.13;7.38;;;10.80;99.90;;;10.80;76.68;100382.91;5097052;28;20118;-69
2023/01/13 10:22:35;;;;;;;33.90;7.20;;;10.70;99.90;;;10.81;76.89;100358.22;5096872;28;20046;-69
2023/01/13 10:25:19;;;;;;;29.98;7.72;;;10.70;99.90;;;10.84;76.70;100387.25;5096271;28;20121;-69
2023/01/13 10:27:50;;;;;;;28.00;6.50;;;10.70;99.90;;;10.80;75.69;100382.06;5096588;28;20147;-68
2023/01/13 10:30:22;;;;;;;30.85;7.38;;;10.70;99.90;;;10.87;76.04;100371.38;5096253;28;20063;-69
2023/01/13 10:32:56;;;;;;;24.20;6.43;;;10.70;99.90;;;10.72;75.64;100378.63;5096185;28;20449;-70
2023/01/13 10:35:53;;;;;;;28.27;6.18;;;10.60;99.90;;;10.84;76.38;100379.34;5096011;28;20447;-69
2023/01/13 10:38:25;;;;;;;31.13;6.53;;;10.70;99.90;;;10.83;76.28;100388.19;5095914;28;20039;-69
2023/01/13 10:40:57;;;;;;;29.45;7.40;;;10.70;99.90;;;10.83;76.02;100355.56;5096082;28;20040;-70
2023/01/13 10:43:26;;;;;;;25.60;6.88;;;10.70;99.90;;;10.87;75.54;100395.19;5095761;28;20047;-70
2023/01/13 10:46:02;;;;;;;29.60;7.13;;;10.70;99.90;;;10.85;75.49;100382.84;5096219;28;20067;-70
2023/01/13 10:48:39;;;;;;;24.02;7.75;;;10.70;99.90;;;10.86;75.63;100387.25;5095821;28;20123;-70
2023/01/13 10:51:21;;;;;;;25.75;7.28;;;10.80;99.90;;;10.92;75.88;100389.81;5077440;28;20051;-70
2023/01/13 10:53:59;;;;;;;30.98;7.00;;;10.80;99.90;;;10.97;75.90;100389.75;5095676;28;20101;-72
2023/01/13 10:56:31;;;;;;;27.38;7.22;;;10.80;99.90;;;10.88;76.01;100393.38;5077704;28;20048;-70
2023/01/13 10:59:22;;;;;;;28.50;7.50;;;10.80;99.90;;;11.04;76.19;100423.16;5095903;28;20063;-69
2023/01/13 11:02:00;;;;;;;32.05;7.55;;;10.80;99.90;;;10.62;76.13;100361.13;5095947;28;20397;-69
2023/01/13 11:04:38;;;;;;;29.40;6.50;;;10.90;99.90;;;11.00;75.60;100417.03;5095689;28;20094;-70
2023/01/13 11:07:23;;;;;;;33.95;7.65;;;10.90;99.90;;;11.10;75.72;100433.66;5095499;28;20428;-70
2023/01/13 11:10:10;;;;;;;24.65;7.40;;;10.90;99.90;;;11.00;75.64;100442.63;5095473;28;20046;-70